Time;durP1;ratioP1;P1;durP2;ratioP2;P2;SDS_P1;SDS_P2;PMS_P1;PMS_P2;Temp;Humidity;BMP_temperature;BMP_pressure;BME280_temperature;BME280_humidity;BME280_pressure;Samples;Min_cycle;Max_cycle;Signal;HPM_P1;HPM_P2
2024/01/22 01:09:48;;;;;;;39.47;16.87;;;;;;;-143.21;81.08;75826.09;6254036;22;20204;-90
2024/01/22 01:12:22;;;;;;;42.07;17.40;;;;;;;-143.21;81.79;75857.84;6264618;22;20214;-90
2024/01/22 01:17:45;;;;;;;40.37;18.73;;;;;;;-143.21;82.28;75804.25;6271304;22;20725;-91
2024/01/22 01:23:16;;;;;;;40.43;18.27;;;;;;;-143.21;81.27;75746.69;6298697;22;20529;-91
2024/01/22 01:26:17;;;;;;;36.93;17.63;;;;;;;-143.21;80.68;75744.69;6312129;22;20164;-90
2024/01/22 01:28:53;;;;;;;40.83;19.00;;;;;;;-143.21;80.10;75724.84;6262292;22;20286;-90
2024/01/22 01:31:21;;;;;;;47.80;20.00;;;;;;;-143.21;79.95;75718.91;6303256;22;20211;-93
2024/01/22 01:33:58;;;;;;;;;;;;;;;;;;;;;
2024/01/22 01:36:25;;;;;;;46.03;21.80;;;;;;;-143.21;79.50;75710.94;6303876;22;20203;-91
2024/01/22 01:38:52;;;;;;;54.47;25.47;;;;;;;-143.21;78.96;75699.03;6319369;22;20179;-91
2024/01/22 01:41:19;;;;;;;50.97;23.83;;;;;;;-143.21;78.18;75708.97;6312381;22;20176;-91
2024/01/22 01:43:59;;;;;;;55.13;24.90;;;;;;;-143.21;78.54;75706.97;6300199;22;20199;-92
2024/01/22 01:49:20;;;;;;;;;;;;;;;;;;;;;
2024/01/22 01:52:19;;;;;;;53.57;25.07;;;;;;;-143.21;77.58;75671.25;6299177;22;20290;-90
2024/01/22 01:57:38;;;;;;;56.17;25.60;;;;;;;-143.21;76.93;75649.41;6304518;22;20200;-90
2024/01/22 02:11:23;;;;;;;49.60;22.43;;;;;;;-143.21;76.46;75675.22;6287887;22;20203;-91
2024/01/22 02:14:06;;;;;;;46.63;21.43;;;;;;;-143.21;76.54;75675.22;6286472;22;20192;-92
2024/01/22 04:23:02;;;;;;;75.73;31.27;;;;;;;-143.21;74.03;75673.22;6254304;23;20208;-93
2024/01/22 07:20:34;;;;;;;44.93;20.53;;;;;;;-143.21;74.04;75826.09;6249764;22;20238;31
2024/01/22 07:30:32;;;;;;;42.93;18.43;;;;;;;-143.21;76.36;75804.25;6272944;22;20188;-96
2024/01/22 11:19:04;;;;;;;76.63;35.27;;;;;;;-143.21;53.53;74490.31;6279652;22;20184;-89
2024/01/22 11:21:52;;;;;;;75.60;36.67;;;;;;;-143.21;50.34;74367.28;6229687;22;20204;-88
2024/01/22 15:09:49;;;;;;;86.87;38.47;;;;;;;-143.21;63.25;75038.06;6117240;23;20393;-91
2024/01/22 16:24:04;;;;;;;292.50;121.57;;;;;;;-143.21;70.40;75238.53;6245808;22;20209;-89
2024/01/22 16:33:37;;;;;;;294.10;128.30;;;;;;;-143.21;70.30;75240.50;6236200;23;20197;-92
2024/01/22 16:36:10;;;;;;;302.97;126.00;;;;;;;-143.21;70.31;75242.50;6237878;23;20175;-91
2024/01/22 16:38:46;;;;;;;318.03;132.73;;;;;;;-143.21;70.72;75244.47;6241365;23;20172;-88
2024/01/22 16:49:53;;;;;;;335.93;138.17;;;;;;;-143.21;70.43;75264.34;6241710;22;20566;-91
2024/01/22 16:52:21;;;;;;;319.23;138.83;;;;;;;-143.21;70.94;75284.19;6237322;22;20192;-92
2024/01/22 16:54:49;;;;;;;329.40;142.33;;;;;;;-143.21;71.05;75286.16;6234071;23;20171;-92
2024/01/22 16:57:16;;;;;;;333.53;144.13;;;;;;;-143.21;71.10;75284.19;6266805;22;20188;-92
2024/01/22 16:59:49;;;;;;;303.93;131.53;;;;;;;-143.21;71.55;75280.22;6275806;22;20161;-91
2024/01/22 17:02:17;;;;;;;275.13;118.20;;;;;;;-143.21;71.42;75288.16;6280682;22;20666;-90
2024/01/22 17:04:50;;;;;;;242.87;105.37;;;;;;;-143.21;71.28;75286.16;6268469;22;20165;-92
2024/01/22 17:07:22;;;;;;;230.00;100.27;;;;;;;-143.21;71.60;75284.19;6268125;22;20651;-91
2024/01/22 17:09:52;;;;;;;250.60;108.10;;;;;;;-143.21;71.57;75278.22;6275095;22;20165;-92
2024/01/22 17:12:21;;;;;;;255.83;112.10;;;;;;;-143.21;71.26;75278.22;6277245;22;20184;-93
2024/01/22 17:14:49;;;;;;;259.13;112.97;;;;;;;-143.21;71.13;75276.25;6268401;22;20256;-91
2024/01/22 17:17:19;;;;;;;215.10;95.77;;;;;;;-143.21;71.25;75292.13;6269212;22;20188;-91
2024/01/22 17:19:46;;;;;;;198.67;90.63;;;;;;;-143.21;71.51;75286.16;6277903;22;20173;-91
2024/01/22 17:24:56;;;;;;;232.57;101.57;;;;;;;-143.21;71.37;75294.09;6270076;22;20191;-91
2024/01/22 17:27:23;;;;;;;307.57;136.87;;;;;;;-143.21;71.28;75290.13;6267315;22;20153;-92
2024/01/22 17:29:50;;;;;;;317.30;142.23;;;;;;;-143.21;71.36;75290.13;6268820;22;20277;-91
2024/01/22 17:32:17;;;;;;;296.73;135.50;;;;;;;-143.21;71.69;75290.13;6269043;22;20219;-91
2024/01/22 17:34:43;;;;;;;370.33;162.70;;;;;;;-143.21;71.40;75304.03;6270892;22;20179;-93
2024/01/22 17:37:11;;;;;;;387.07;181.53;;;;;;;-143.21;71.34;75313.94;6269102;22;20279;-91
2024/01/22 17:39:38;;;;;;;366.40;161.13;;;;;;;-143.21;71.71;75311.97;6265836;22;20252;-92
2024/01/22 17:42:06;;;;;;;323.17;142.33;;;;;;;-143.21;72.03;75315.94;6268374;22;20200;-91
2024/01/22 17:44:33;;;;;;;215.90;101.00;;;;;;;-143.21;72.28;75309.97;6267266;22;20168;-92
2024/01/22 17:47:00;;;;;;;201.07;84.27;;;;;;;-143.21;72.03;75306.00;6269862;22;20599;-92
2024/01/22 17:49:27;;;;;;;176.60;73.63;;;;;;;-143.21;72.02;75309.97;6270335;22;20165;-89
2024/01/22 17:51:54;;;;;;;175.50;67.80;;;;;;;-143.21;72.18;75317.91;6268881;22;20212;-92
2024/01/22 17:54:21;;;;;;;174.50;69.33;;;;;;;-143.21;71.83;75313.94;6267621;22;20173;-90
2024/01/22 17:56:48;;;;;;;192.17;78.40;;;;;;;-143.21;71.48;75323.88;6269291;22;20176;-91
2024/01/22 17:59:16;;;;;;;228.30;94.77;;;;;;;-143.21;71.46;75341.75;6278021;22;20617;-91
2024/01/22 18:01:43;;;;;;;215.23;95.50;;;;;;;-143.21;71.39;75341.75;6271223;22;20669;-91
2024/01/22 18:04:10;;;;;;;194.87;80.50;;;;;;;-143.21;71.69;75347.69;6267399;22;20168;-90
2024/01/22 18:06:37;;;;;;;189.37;77.53;;;;;;;-143.21;72.10;75353.66;6268947;22;20192;-91
2024/01/22 18:09:04;;;;;;;184.07;74.13;;;;;;;-143.21;72.00;75351.66;6265641;22;20197;-91
2024/01/22 18:11:31;;;;;;;174.67;72.60;;;;;;;-143.21;71.78;75353.66;6267878;22;20165;-93
2024/01/22 18:13:58;;;;;;;170.07;71.57;;;;;;;-143.21;71.89;75363.56;6267415;22;20173;-92
2024/01/22 18:16:27;;;;;;;172.93;66.33;;;;;;;-143.21;72.18;75371.50;6273378;22;20820;-92
2024/01/22 18:18:54;;;;;;;168.43;68.23;;;;;;;-143.21;72.42;75369.53;6279621;22;20626;-92
2024/01/22 18:21:22;;;;;;;150.90;63.43;;;;;;;-143.21;72.48;75359.59;6268349;22;20172;-92
2024/01/22 18:23:49;;;;;;;169.93;65.00;;;;;;;-143.21;72.65;75369.53;6275355;22;20165;-92
2024/01/22 18:26:17;;;;;;;151.53;63.10;;;;;;;-143.21;72.64;75353.66;6267845;22;20177;-91
2024/01/22 18:28:44;;;;;;;161.33;63.50;;;;;;;-143.21;72.04;75363.56;6269051;22;20183;-91
2024/01/22 18:31:11;;;;;;;153.73;62.43;;;;;;;-143.21;71.57;75355.63;6268344;22;20165;-91
2024/01/22 18:33:42;;;;;;;158.47;63.90;;;;;;;-143.21;71.71;75363.56;6240425;22;20157;-92
2024/01/22 18:36:09;;;;;;;170.67;68.73;;;;;;;-143.21;71.58;75373.50;6266771;22;20157;-91
2024/01/22 18:38:36;;;;;;;165.20;67.60;;;;;;;-143.21;71.37;75375.47;6270389;22;20177;-93
2024/01/22 18:41:03;;;;;;;185.53;71.20;;;;;;;-143.21;71.33;75379.44;6280639;22;20187;-92
2024/01/22 18:43:31;;;;;;;182.47;74.17;;;;;;;-143.21;71.37;75379.44;6285789;22;20202;-91
2024/01/22 18:45:57;;;;;;;179.80;73.17;;;;;;;-143.21;71.63;75379.44;6276561;22;20165;-91
2024/01/22 18:48:57;;;;;;;191.27;76.30;;;;;;;-143.21;71.82;75383.44;6271029;22;20214;-95
2024/01/22 18:54:28;;;;;;;180.63;70.00;;;;;;;-143.21;72.14;75371.50;6270652;22;20237;-95
2024/01/22 18:56:55;;;;;;;170.53;65.77;;;;;;;-143.21;71.87;75367.53;6240342;23;20164;-93
2024/01/22 18:59:24;;;;;;;161.43;64.33;;;;;;;-143.21;71.53;75367.53;6236006;23;20166;-91
2024/01/22 19:01:50;;;;;;;162.60;65.77;;;;;;;-143.21;71.26;75373.50;6236692;23;20165;-91
2024/01/22 19:04:19;;;;;;;179.90;69.27;;;;;;;-143.21;71.46;75379.44;6235633;23;20176;-91
2024/01/22 19:06:47;;;;;;;188.23;73.67;;;;;;;-143.21;71.55;75389.38;6237337;23;20165;-92
2024/01/22 19:09:14;;;;;;;193.27;71.53;;;;;;;-143.21;71.39;75385.41;6234948;23;20221;-91
2024/01/22 19:11:41;;;;;;;194.40;72.00;;;;;;;-143.21;70.94;75389.38;6236495;23;20173;-91
2024/01/22 19:14:08;;;;;;;178.73;70.67;;;;;;;-143.21;70.82;75389.38;6237090;23;20173;-91
2024/01/22 19:16:35;;;;;;;173.17;68.67;;;;;;;-143.21;70.63;75403.28;6211986;23;20171;-91
2024/01/22 19:19:02;;;;;;;177.63;71.57;;;;;;;-143.21;70.99;75401.28;6240633;23;20546;-92
2024/01/22 19:21:30;;;;;;;183.80;71.17;;;;;;;-143.21;70.68;75395.34;6236694;23;20472;-92
2024/01/22 19:23:58;;;;;;;179.30;70.60;;;;;;;-143.21;70.62;75403.28;6236908;23;20200;-92
2024/01/22 19:26:27;;;;;;;183.20;76.20;;;;;;;-143.21;70.62;75403.28;6239283;23;20172;-90
2024/01/22 19:28:57;;;;;;;177.30;71.67;;;;;;;-143.21;69.94;75401.28;6242793;23;20185;-90
2024/01/22 19:31:23;;;;;;;199.37;75.20;;;;;;;-143.21;70.08;75409.22;6239494;23;20161;-90
2024/01/22 19:33:50;;;;;;;199.07;77.03;;;;;;;-143.21;69.99;75417.16;6238755;23;20681;-91
2024/01/22 19:36:17;;;;;;;199.97;77.23;;;;;;;-143.21;70.15;75423.13;6239846;23;20172;-90
2024/01/22 19:38:44;;;;;;;202.33;76.97;;;;;;;-143.21;70.18;75417.16;6240753;23;20165;-91
2024/01/22 19:41:12;;;;;;;195.13;72.17;;;;;;;-143.21;70.20;75419.16;6240193;23;20541;-91
2024/01/22 19:43:39;;;;;;;178.07;71.50;;;;;;;-143.21;69.60;75415.19;6237416;23;20197;-91
2024/01/22 19:46:06;;;;;;;168.20;66.73;;;;;;;-143.21;69.47;75415.19;6235598;23;20613;-91
2024/01/22 19:48:35;;;;;;;170.77;65.60;;;;;;;-143.21;69.34;75413.19;6234922;23;20169;-91
2024/01/22 19:51:03;;;;;;;161.10;64.27;;;;;;;-143.21;69.51;75429.06;6244432;23;20193;-94
2024/01/22 19:53:30;;;;;;;175.00;67.30;;;;;;;-143.21;69.74;75431.06;6242869;22;20532;-94
2024/01/22 19:56:03;;;;;;;168.50;66.07;;;;;;;-143.21;69.62;75431.06;6243199;23;20197;-94
2024/01/22 20:01:35;;;;;;;174.13;68.10;;;;;;;-143.21;69.20;75439.00;6239487;23;20170;-94
2024/01/22 20:04:08;;;;;;;182.13;68.03;;;;;;;-143.21;69.54;75437.03;6246084;23;20284;-95
2024/01/22 20:06:37;;;;;;;175.33;68.00;;;;;;;-143.21;69.18;75448.94;6248681;23;20162;-94
2024/01/22 20:11:46;;;;;;;168.27;66.03;;;;;;;-143.21;68.97;75448.94;6246445;23;20275;-91
2024/01/22 20:14:14;;;;;;;174.00;68.43;;;;;;;-143.21;69.19;75458.84;6238312;23;20177;-92
2024/01/22 20:16:42;;;;;;;172.37;71.83;;;;;;;-143.21;68.98;75466.78;6242845;23;20166;-91
2024/01/22 20:19:09;;;;;;;176.10;67.57;;;;;;;-143.21;69.32;75462.81;6247259;23;20166;-91
2024/01/22 20:21:41;;;;;;;163.13;66.97;;;;;;;-143.21;69.26;75474.72;6239220;23;20589;-91
2024/01/22 20:24:08;;;;;;;162.47;67.10;;;;;;;-143.21;68.90;75468.78;6241610;23;20592;-91
2024/01/22 20:26:35;;;;;;;171.97;69.70;;;;;;;-143.21;69.23;75462.81;6253676;23;20196;-90
2024/01/22 20:29:02;;;;;;;172.10;67.03;;;;;;;-143.21;69.09;75468.78;6248659;23;20162;-92
2024/01/22 20:31:33;;;;;;;168.60;66.80;;;;;;;-143.21;68.76;75468.78;6248105;23;20162;-92
2024/01/22 20:34:00;;;;;;;163.87;66.77;;;;;;;-143.21;68.22;75464.81;6238889;23;20186;-91
2024/01/22 20:36:28;;;;;;;178.63;68.17;;;;;;;-143.21;68.21;75474.72;6240033;23;20165;-89
2024/01/22 20:38:55;;;;;;;170.87;69.33;;;;;;;-143.21;68.19;75472.75;6243412;23;20180;-92
2024/01/22 20:41:32;;;;;;;158.73;65.03;;;;;;;-143.21;67.58;75466.78;6246063;23;20643;-94
2024/01/22 20:43:59;;;;;;;162.97;66.23;;;;;;;-143.21;68.16;75468.78;6245122;23;20731;-91
2024/01/22 20:46:26;;;;;;;176.43;67.27;;;;;;;-143.21;67.56;75478.69;6239671;23;20172;-91
2024/01/22 20:48:55;;;;;;;164.27;64.43;;;;;;;-143.21;67.77;75482.66;6238621;23;20185;-90
2024/01/22 20:51:21;;;;;;;160.60;63.37;;;;;;;-143.21;67.73;75488.63;6238482;23;20193;-90
2024/01/22 20:53:48;;;;;;;168.67;66.50;;;;;;;-143.21;67.83;75488.63;6239725;22;20181;-91
2024/01/22 20:56:17;;;;;;;180.00;68.37;;;;;;;-143.21;67.44;75482.66;6240962;23;20614;-92
2024/01/22 20:58:45;;;;;;;164.17;62.27;;;;;;;-143.21;67.70;75494.59;6241021;23;20511;-92
2024/01/22 21:01:14;;;;;;;173.13;65.20;;;;;;;-143.21;67.42;75490.63;6237984;23;20256;-91
2024/01/22 21:03:41;;;;;;;166.67;61.30;;;;;;;-143.21;67.51;75490.63;6239977;23;20699;-90
2024/01/22 21:06:10;;;;;;;164.20;58.40;;;;;;;-143.21;67.71;75504.50;6238574;23;20188;-91
2024/01/22 21:08:37;;;;;;;148.50;56.47;;;;;;;-143.21;67.69;75506.50;6236436;23;20177;-91
2024/01/22 21:11:04;;;;;;;140.93;55.30;;;;;;;-143.21;67.44;75514.44;6236801;23;20544;-92
2024/01/22 21:13:31;;;;;;;141.23;54.83;;;;;;;-143.21;67.28;75516.41;6237768;23;20169;-92
2024/01/22 21:16:01;;;;;;;159.00;59.43;;;;;;;-143.21;66.32;75518.41;6238878;23;20545;-90
2024/01/22 21:18:28;;;;;;;155.70;61.23;;;;;;;-143.21;66.47;75526.34;6210728;23;20168;-91
2024/01/22 21:20:55;;;;;;;171.27;66.47;;;;;;;-143.21;65.76;75530.31;6236843;23;20628;-92
2024/01/22 21:23:24;;;;;;;185.47;67.87;;;;;;;-143.21;66.13;75538.25;6238340;23;20287;-94
2024/01/22 21:25:54;;;;;;;204.47;73.13;;;;;;;-143.21;66.32;75544.22;6241271;23;20585;-92
2024/01/22 21:28:22;;;;;;;205.20;75.20;;;;;;;-143.21;65.64;75544.22;6211859;23;20626;-91
2024/01/22 21:30:50;;;;;;;206.83;77.53;;;;;;;-143.21;65.85;75550.16;6238600;23;20169;-93
2024/01/22 21:33:17;;;;;;;205.23;78.23;;;;;;;-143.21;65.60;75556.13;6240165;23;20539;-91
2024/01/22 21:35:44;;;;;;;205.67;82.30;;;;;;;-143.21;65.23;75564.06;6243076;23;20684;-91
2024/01/22 21:38:12;;;;;;;218.90;84.67;;;;;;;-143.21;65.33;75575.97;6246952;23;20185;-90
2024/01/22 21:40:41;;;;;;;204.97;77.97;;;;;;;-143.21;65.46;75575.97;6250385;23;20252;-92
2024/01/22 21:43:09;;;;;;;179.70;67.90;;;;;;;-143.21;65.64;75570.00;6240962;23;20193;-93
2024/01/22 21:45:36;;;;;;;166.93;60.17;;;;;;;-143.21;66.38;75575.97;6244187;23;20165;-92
2024/01/22 21:48:03;;;;;;;171.57;61.93;;;;;;;-143.21;66.46;75591.84;6242193;23;20165;-90
2024/01/22 21:50:31;;;;;;;174.30;60.87;;;;;;;-143.21;66.32;75589.88;6240944;23;20162;-91
2024/01/22 21:52:58;;;;;;;158.13;60.33;;;;;;;-143.21;66.64;75587.88;6238245;22;20623;-91
2024/01/22 21:55:27;;;;;;;150.60;56.23;;;;;;;-143.21;65.72;75583.91;6238114;23;20197;-92
2024/01/22 21:57:56;;;;;;;144.97;55.50;;;;;;;-143.21;65.74;75593.84;6238408;23;20192;-90
2024/01/22 22:00:23;;;;;;;159.53;59.13;;;;;;;-143.21;65.63;75595.81;6245747;23;20734;-92
2024/01/22 22:02:50;;;;;;;146.43;56.20;;;;;;;-143.21;66.14;75603.75;6247591;23;20196;-91
2024/01/22 22:05:18;;;;;;;153.93;55.73;;;;;;;-143.21;66.06;75593.84;6240595;23;20702;-93
2024/01/22 22:07:46;;;;;;;139.17;54.23;;;;;;;-143.21;66.43;75597.81;6244055;23;20170;-92
2024/01/22 22:10:13;;;;;;;133.67;53.20;;;;;;;-143.21;66.26;75605.75;6264546;22;20166;-91
2024/01/22 22:12:40;;;;;;;145.63;53.37;;;;;;;-143.21;65.76;75601.78;6240374;23;20189;-90
2024/01/22 22:15:11;;;;;;;129.30;52.47;;;;;;;-143.21;66.12;75603.75;6243228;23;20235;-92
2024/01/22 22:17:38;;;;;;;142.67;52.93;;;;;;;-143.21;66.52;75597.81;6242004;23;20219;-93
2024/01/22 22:20:06;;;;;;;143.00;52.53;;;;;;;-143.21;66.19;75601.78;6243721;23;20177;-92
2024/01/22 22:22:33;;;;;;;141.20;54.13;;;;;;;-143.21;66.30;75607.72;6244272;23;20169;-91
2024/01/22 22:25:00;;;;;;;140.80;51.43;;;;;;;-143.21;66.14;75603.75;6239056;23;20522;-92
2024/01/22 22:27:27;;;;;;;137.20;52.43;;;;;;;-143.21;66.24;75589.88;6238694;23;20223;-95
2024/01/22 22:29:54;;;;;;;136.57;52.87;;;;;;;-143.21;65.90;75595.81;6241155;23;20173;-93
2024/01/22 22:32:22;;;;;;;136.47;52.37;;;;;;;-143.21;66.08;75583.91;6240352;23;20181;-89
2024/01/22 22:34:49;;;;;;;138.10;52.20;;;;;;;-143.21;67.00;75589.88;6236022;23;20166;-90
2024/01/22 22:37:16;;;;;;;128.80;50.23;;;;;;;-143.21;66.56;75589.88;6234750;23;20250;-95
2024/01/22 22:39:43;;;;;;;142.67;52.87;;;;;;;-143.21;66.65;75585.91;6237764;23;20162;-90
2024/01/22 22:42:11;;;;;;;129.03;49.67;;;;;;;-143.21;66.53;75581.91;6237081;23;20196;-94
2024/01/22 22:44:38;;;;;;;144.13;49.03;;;;;;;-143.21;66.52;75566.03;6237993;23;20196;-92
2024/01/22 22:47:05;;;;;;;124.73;49.00;;;;;;;-143.21;67.03;75564.06;6236419;23;20204;-92
2024/01/22 22:49:34;;;;;;;134.30;51.80;;;;;;;-143.21;67.02;75562.06;6236704;23;20166;-92
2024/01/22 22:52:01;;;;;;;136.70;49.70;;;;;;;-143.21;67.02;75564.06;6238035;22;20189;-93
2024/01/22 22:54:28;;;;;;;133.33;50.63;;;;;;;-143.21;67.94;75558.09;6239899;23;20165;-91
2024/01/22 22:56:55;;;;;;;121.83;47.90;;;;;;;-143.21;67.79;75560.09;6238613;23;20197;-93
2024/01/22 22:59:22;;;;;;;128.67;49.70;;;;;;;-143.21;67.66;75560.09;6239138;23;20256;-90
2024/01/22 23:01:49;;;;;;;143.80;51.90;;;;;;;-143.21;67.52;75552.16;6239121;23;20188;-91
2024/01/22 23:04:16;;;;;;;124.23;49.07;;;;;;;-143.21;66.61;75558.09;6239653;23;20197;-93
2024/01/22 23:06:44;;;;;;;137.93;54.33;;;;;;;-143.21;67.62;75562.06;6239286;23;20162;-91
2024/01/22 23:09:12;;;;;;;155.87;57.30;;;;;;;-143.21;67.32;75550.16;6247514;23;20527;-89
2024/01/22 23:11:39;;;;;;;160.33;57.80;;;;;;;-143.21;67.36;75548.19;6238736;23;20161;-91
2024/01/22 23:14:07;;;;;;;166.93;58.73;;;;;;;-143.21;67.19;75548.19;6238481;23;20165;-91
2024/01/22 23:16:34;;;;;;;156.37;60.70;;;;;;;-143.21;67.03;75544.22;6240326;23;20169;-91
2024/01/22 23:19:02;;;;;;;182.57;64.67;;;;;;;-143.21;67.40;75552.16;6236960;23;20184;-90
2024/01/22 23:21:29;;;;;;;225.20;80.87;;;;;;;-143.21;67.90;75540.25;6237655;23;20170;-92
2024/01/22 23:23:58;;;;;;;182.70;70.03;;;;;;;-143.21;67.82;75530.31;6237953;23;20193;-93
2024/01/22 23:26:25;;;;;;;180.70;64.63;;;;;;;-143.21;67.53;75534.28;6239833;23;20176;-91
2024/01/22 23:28:52;;;;;;;196.37;70.93;;;;;;;-143.21;67.52;75528.31;6237623;23;20193;-92
2024/01/22 23:31:19;;;;;;;163.30;61.40;;;;;;;-143.21;67.22;75526.34;6237828;23;20165;-91
2024/01/22 23:33:46;;;;;;;148.73;55.37;;;;;;;-143.21;67.37;75524.34;6237481;23;20165;-91
2024/01/22 23:36:13;;;;;;;145.83;54.10;;;;;;;-143.21;67.06;75526.34;6238854;23;20180;-93
2024/01/22 23:38:41;;;;;;;131.70;51.17;;;;;;;-143.21;67.61;75530.31;6241217;23;20176;-91
2024/01/22 23:41:10;;;;;;;122.13;46.63;;;;;;;-143.21;67.89;75532.28;6241017;23;20231;-91
2024/01/22 23:43:37;;;;;;;121.63;45.80;;;;;;;-143.21;67.74;75542.22;6240043;23;20192;-92
2024/01/22 23:46:04;;;;;;;125.70;45.87;;;;;;;-143.21;68.02;75532.28;6240278;23;20182;-92
2024/01/22 23:48:31;;;;;;;120.23;44.77;;;;;;;-143.21;67.96;75538.25;6244307;23;20663;-90
2024/01/22 23:50:58;;;;;;;114.07;42.53;;;;;;;-143.21;67.51;75534.28;6221898;23;20172;-90
2024/01/22 23:53:27;;;;;;;110.33;41.93;;;;;;;-143.21;68.13;75538.25;6260252;22;20185;-92
2024/01/22 23:55:54;;;;;;;105.03;41.60;;;;;;;-143.21;68.15;75538.25;6249013;23;20221;-91
2024/01/22 23:58:22;;;;;;;114.27;41.63;;;;;;;-143.21;68.90;75538.25;6243492;23;20176;-92
